KIAH/IAH METAR and TAF weather

Enter ICAO airport designator
Station Type Date Time Source
KIAH METAR 2020/09/30 16:53 UTC NOAA

KIAH 301653Z 24008KT 10SM CLR 27/07 A3013 RMK AO2 SLP203 T02720067


Station Type Date Time Source
KIAH Decoded METAR 2020/09/30 16:53 UTC NOAA

HOUSTON INTERCONTINENTAL, TX, United States (KIAH) 30-00N 095-22W 36M
Sep 30, 2020 - 12:53 PM EDT / 2020.09.30 1653 UTC
Wind: from the WSW (240 degrees) at 9 MPH (8 KT):0
Visibility: 10 mile(s):0
Sky conditions: clear
Temperature: 81.0 F (27.2 C)
Dew Point: 44.1 F (6.7 C)
Relative Humidity: 27%
Pressure (altimeter): 30.13 in. Hg (1020 hPa)
ob: KIAH 301653Z 24008KT 10SM CLR 27/07 A3013 RMK AO2 SLP203 T02720067
cycle: 17

Station Type Date Time Source
KIAH TAF 2020/09/30 15:03 UTC NOAA

TAF
AMD KIAH 301500Z 3015/0118 VRB04KT P6SM SKC
FM301600 23005KT P6SM SKC
FM010000 VRB02KT P6SM SKC

Example: see airport list